Jackson, North Carolina
Current Conditions -  °F | °C
As of 4:35 PM on Thursday 18 Dec 2014 (Local Time) from KIXA Reporting Station
Overcast Overcast  
Wind Chill: 45°   Ceiling: 10000
Heat Index: 45°   Visibility: 10mi
Dew Point: 28°   Wind: 0mph
Humidity: 53%   Direction: NA
Pressure: 30.09"   Gusts: NA
Location:  36.39°N, 77.42°W
Report Text: KIXA 182135Z AUTO 00000KT 10SM OVC100 07/M02 A3009 RMK AO2
Loading
Personal Weather Stations






























Interactive Weather Map New forecast layout! Learn more

10-Day Weather Forecast

Advertisements
Track Severe Weather on mobile